EST,Max TemperatureF,Mean TemperatureF,Min TemperatureF,Max Dew PointF,MeanDew PointF,Min DewpointF,Max Humidity, Mean Humidity, Min Humidity, Max Sea Level PressureIn, Mean Sea Level PressureIn, Min Sea Level PressureIn, Max VisibilityMiles, Mean VisibilityMiles, Min VisibilityMiles, Max Wind SpeedMPH, Mean Wind SpeedMPH, Max Gust SpeedMPH,PrecipitationIn, CloudCover, Events, WindDirDegrees
2013-1-1,55,53,51,53,49,46,97,85,69,30.13,30.05,29.96,10,10,8,16,8,22,0.00,7,Rain,242
2013-1-2,55,48,41,54,46,35,100,92,79,30.17,30.01,29.92,10,6,2,17,7,21,0.24,7,Rain,29
2013-1-3,43,40,37,39,35,33,89,79,73,30.25,30.19,30.14,10,10,7,12,8,,0.04,5,Rain,23
2013-1-4,51,43,35,35,31,27,89,66,41,30.32,30.26,30.20,10,10,7,13,6,,0.00,1,,298
2013-1-5,50,39,28,33,29,24,89,66,39,30.39,30.33,30.27,10,10,7,12,6,,0.00,0,,8
2013-1-6,50,44,37,45,40,33,93,81,66,30.28,30.18,30.10,10,10,9,9,2,,0.02,7,Rain,323
2013-1-7,52,46,39,45,36,34,93,71,52,30.45,30.33,30.13,10,10,9,14,10,23,0.00,1,,21
2013-1-8,61,52,42,51,45,36,100,81,67,30.45,30.40,30.36,10,9,5,9,5,,0.00,5,,55
2013-1-9,70,57,44,55,50,43,100,87,59,30.42,30.38,30.36,10,7,0,7,1,,0.00,3,Fog,40
2013-1-10,61,54,46,54,44,27,100,76,27,30.51,30.45,30.40,10,6,0,15,5,24,0.00,1,Fog,25
2013-1-11,71,60,48,63,57,42,100,93,66,30.43,30.24,30.17,10,5,0,14,7,23,0.08,5,Fog-Rain,182
2013-1-12,64,60,55,61,57,55,100,98,84,30.19,30.15,30.12,10,3,0,9,5,44,0.01,5,Fog,214
2013-1-13,66,60,55,62,59,55,100,93,79,30.18,30.15,30.12,10,6,0,10,4,,0.01,3,Fog,184
2013-1-14,71,64,57,63,61,57,97,89,73,30.21,30.17,30.13,10,10,9,12,8,,0.01,0,,219
2013-1-15,66,58,51,62,56,52,100,95,78,30.21,30.15,30.08,10,5,1,13,6,,0.05,6,Rain,45
2013-1-16,70,62,54,64,59,53,100,92,78,30.08,30.03,29.98,10,7,1,16,6,23,0.01,2,,200
2013-1-17,68,58,48,61,55,46,100,95,78,30.00,29.94,29.80,10,4,0,20,6,31,0.11,5,Fog-Rain,54
2013-1-18,45,40,37,41,36,32,93,84,60,30.43,30.23,30.02,10,10,10,24,16,31,0.00,5,Rain,352
2013-1-19,,,,,,,,,,,,,,,,,,,,,,
2013-1-20,,,,,,,,,,,,,,,,,,,,,,
2013-1-21,63,58,53,47,45,42,77,63,50,30.01,29.93,29.89,10,10,10,15,9,23,0.00,0,,227
2013-1-22,52,41,30,35,15,7,53,36,23,30.28,30.14,29.94,10,10,10,18,12,24,0.00,0,,347
2013-1-23,44,34,26,30,12,1,67,42,23,30.39,30.29,30.14,10,10,10,15,7,,0.00,0,,333
2013-1-24,51,38,26,38,20,4,68,49,32,30.52,30.25,29.99,10,10,9,24,16,33,0.00,0,,331
2013-1-25,39,31,23,34,25,9,100,74,49,30.51,30.28,30.11,10,8,4,15,7,22,0.14,5,Rain,6
2013-1-26,39,34,30,34,30,27,89,83,75,30.39,30.24,30.12,10,8,4,12,9,,0.00,5,,360
2013-1-27,43,36,28,30,27,21,96,75,43,30.58,30.50,30.39,10,8,2,18,8,24,0.00,2,,22
2013-1-28,55,44,33,55,42,28,100,85,72,30.51,30.38,30.26,10,8,0,9,5,,0.00,4,Fog-Rain,358
2013-1-29,64,56,48,58,53,48,100,94,73,30.25,30.21,30.14,8,4,0,13,6,,0.01,3,Fog,230
2013-1-30,69,63,57,63,60,56,100,86,73,30.15,29.95,29.66,9,8,4,22,12,33,0.01,5,,191
2013-1-31,66,56,46,63,42,24,97,62,33,30.07,29.78,29.53,10,8,2,33,22,47,0.14,3,Rain,253